Time;durP1;ratioP1;P1;durP2;ratioP2;P2;SDS_P1;SDS_P2;PMS_P1;PMS_P2;Temp;Humidity;BMP_temperature;BMP_pressure;BME280_temperature;BME280_humidity;BME280_pressure;Samples;Min_cycle;Max_cycle;Signal;HPM_P1;HPM_P2
2022/03/11 00:01:07;;;;;;;13.55;11.30;;;13.70;50.60;;;;;;5075780;28;20031;-75
2022/03/11 00:03:33;;;;;;;14.38;10.85;;;13.70;50.90;;;;;;5075945;28;20013;-74
2022/03/11 00:05:59;;;;;;;13.73;11.68;;;13.60;50.70;;;;;;5075611;28;20069;-74
2022/03/11 00:08:24;;;;;;;12.35;10.18;;;13.60;50.80;;;;;;5075752;28;20079;-74
2022/03/11 00:10:50;;;;;;;12.27;10.75;;;13.60;50.80;;;;;;5075715;28;20027;-74
2022/03/11 00:13:16;;;;;;;12.95;10.20;;;13.60;50.70;;;;;;5075632;28;20021;-74
2022/03/11 00:15:42;;;;;;;14.65;10.65;;;13.60;50.80;;;;;;5075693;28;20032;-66
2022/03/11 00:18:08;;;;;;;12.02;9.85;;;13.50;51.00;;;;;;5057549;28;20428;-69
2022/03/11 00:20:34;;;;;;;13.18;10.15;;;13.50;51.80;;;;;;5075608;28;20025;-71
2022/03/11 00:23:00;;;;;;;12.77;9.80;;;13.50;51.40;;;;;;5075438;28;20502;-69
2022/03/11 00:25:26;;;;;;;12.95;9.70;;;13.50;50.80;;;;;;5075165;28;20028;-65
2022/03/11 00:27:51;;;;;;;12.43;9.45;;;13.50;51.20;;;;;;5075522;28;20082;-63
2022/03/11 00:30:17;;;;;;;12.15;9.80;;;13.50;51.00;;;;;;5075539;28;20029;-73
2022/03/11 00:32:43;;;;;;;13.85;10.30;;;13.50;51.00;;;;;;5075255;28;20028;-74
2022/03/11 00:35:10;;;;;;;14.10;9.63;;;13.40;50.60;;;;;;5075369;28;20389;-74
2022/03/11 00:37:37;;;;;;;13.13;9.82;;;13.40;50.50;;;;;;5075297;28;20029;-74
2022/03/11 00:40:04;;;;;;;11.88;9.50;;;13.30;50.70;;;;;;5075222;28;20028;-73
2022/03/11 00:42:29;;;;;;;11.23;9.27;;;13.30;50.70;;;;;;5074770;28;20044;-74
2022/03/11 00:44:55;;;;;;;12.32;9.55;;;13.30;50.70;;;;;;5074228;28;20508;-68
2022/03/11 00:47:20;;;;;;;11.07;9.57;;;13.30;51.00;;;;;;5075040;28;20496;-66
2022/03/11 00:49:46;;;;;;;13.07;9.07;;;13.20;50.80;;;;;;5075138;28;20371;-61
2022/03/11 00:52:11;;;;;;;13.00;9.30;;;13.20;50.90;;;;;;5075051;28;20096;-68
2022/03/11 00:54:37;;;;;;;11.02;9.65;;;13.20;50.90;;;;;;5074721;28;20016;-62
2022/03/11 00:57:03;;;;;;;15.15;9.35;;;13.10;50.90;;;;;;5074784;28;20060;-64
2022/03/11 00:59:28;;;;;;;12.65;9.63;;;13.10;51.00;;;;;;5074948;28;20025;-74
2022/03/11 01:01:54;;;;;;;12.85;9.48;;;13.10;51.40;;;;;;5075005;28;20047;-74
2022/03/11 01:04:20;;;;;;;11.00;9.77;;;13.10;51.30;;;;;;5074721;28;20024;-73
2022/03/11 01:06:45;;;;;;;10.75;8.38;;;13.00;51.10;;;;;;5074759;28;20032;-74
2022/03/11 01:09:11;;;;;;;15.45;9.70;;;13.00;51.10;;;;;;5074214;28;20044;-74
2022/03/11 01:11:36;;;;;;;10.25;8.40;;;13.00;51.30;;;;;;5074705;28;20035;-74
2022/03/11 01:14:03;;;;;;;14.60;9.02;;;13.00;51.30;;;;;;5074691;28;20444;-73
2022/03/11 01:16:29;;;;;;;11.50;8.57;;;12.90;51.30;;;;;;5074582;28;20036;-67
2022/03/11 01:18:54;;;;;;;10.00;8.32;;;12.90;51.20;;;;;;5074236;28;20044;-65
2022/03/11 01:21:20;;;;;;;12.75;9.10;;;12.90;51.20;;;;;;5074690;28;20070;-60
2022/03/11 01:23:46;;;;;;;11.13;8.40;;;12.80;51.00;;;;;;5074105;28;20123;-60
2022/03/11 01:26:12;;;;;;;15.05;8.20;;;12.80;51.50;;;;;;5074570;28;20032;-65
2022/03/11 01:28:42;;;;;;;12.20;8.32;;;12.90;51.40;;;;;;5074063;28;20060;-66
2022/03/11 01:31:11;;;;;;;11.15;7.70;;;12.90;51.30;;;;;;5074264;28;20381;-63
2022/03/11 01:33:41;;;;;;;13.35;8.20;;;12.80;51.80;;;;;;5073918;28;20420;-66
2022/03/11 01:36:08;;;;;;;13.18;8.52;;;12.80;50.90;;;;;;5074010;28;20132;-64
2022/03/11 01:38:34;;;;;;;10.57;7.65;;;12.80;51.20;;;;;;5073790;28;20363;-64
2022/03/11 01:40:59;;;;;;;12.20;8.38;;;12.80;51.70;;;;;;5074127;28;20532;-69
2022/03/11 01:43:25;;;;;;;10.25;8.43;;;12.80;51.10;;;;;;5073791;28;20024;-64
2022/03/11 01:45:51;;;;;;;10.35;8.23;;;12.80;51.20;;;;;;5073913;28;20097;-65
2022/03/11 01:48:16;;;;;;;9.48;7.82;;;12.70;50.80;;;;;;5074019;28;20439;-70
2022/03/11 01:50:42;;;;;;;10.63;8.13;;;12.70;50.90;;;;;;5073909;28;20474;-71
2022/03/11 01:53:10;;;;;;;9.57;7.85;;;12.70;51.10;;;;;;5073436;28;20032;-72
2022/03/11 01:55:36;;;;;;;12.43;8.15;;;12.70;51.20;;;;;;5073358;28;20054;-62
2022/03/11 01:58:03;;;;;;;11.27;7.20;;;12.70;50.80;;;;;;5073816;28;20477;-61
2022/03/11 02:00:29;;;;;;;12.63;8.27;;;12.70;51.10;;;;;;5073660;28;20469;-61
2022/03/11 02:02:54;;;;;;;11.38;7.80;;;12.60;50.70;;;;;;5073808;28;20041;-62
2022/03/11 02:05:20;;;;;;;9.95;7.97;;;12.60;51.30;;;;;;5073516;28;20040;-59
2022/03/11 02:07:47;;;;;;;8.85;7.22;;;12.60;50.60;;;;;;5073091;28;20126;-61
2022/03/11 02:10:13;;;;;;;9.57;7.80;;;12.60;51.10;;;;;;5075908;28;20039;-60
2022/03/11 02:12:38;;;;;;;11.35;7.72;;;12.60;51.00;;;;;;5089594;28;20108;-60
2022/03/11 02:15:06;;;;;;;8.98;7.32;;;12.60;50.80;;;;;;5092724;28;20369;-60
2022/03/11 02:17:31;;;;;;;12.48;8.23;;;12.50;51.10;;;;;;5093511;28;20020;-60
2022/03/11 02:19:57;;;;;;;10.23;8.35;;;12.50;50.90;;;;;;5093388;28;20096;-65
2022/03/11 02:22:24;;;;;;;11.68;8.75;;;12.50;51.10;;;;;;5093488;28;20024;-70
2022/03/11 02:24:53;;;;;;;14.80;8.43;;;12.50;51.00;;;;;;5093500;28;20024;-64
2022/03/11 02:27:20;;;;;;;9.57;8.40;;;12.50;50.90;;;;;;5093784;28;20024;-62
2022/03/11 02:29:46;;;;;;;10.52;8.18;;;12.50;51.00;;;;;;5093237;28;20024;-60
2022/03/11 02:32:11;;;;;;;10.95;8.80;;;12.50;50.90;;;;;;5093596;28;20131;-62
2022/03/11 02:34:38;;;;;;;9.43;8.48;;;12.50;50.70;;;;;;5093107;28;20051;-63
2022/03/11 02:37:04;;;;;;;11.57;8.27;;;12.40;50.60;;;;;;5093097;28;20084;-64
2022/03/11 02:39:30;;;;;;;10.70;8.60;;;12.30;50.60;;;;;;5093284;28;20020;-73
2022/03/11 02:41:57;;;;;;;9.23;7.50;;;12.30;51.10;;;;;;5093317;28;20483;-72
2022/03/11 02:44:23;;;;;;;9.95;7.68;;;12.30;51.20;;;;;;5093271;28;20043;-70
2022/03/11 02:46:49;;;;;;;11.25;8.05;;;12.30;50.90;;;;;;5093195;28;20465;-73
2022/03/11 02:49:15;;;;;;;10.80;8.52;;;12.30;51.20;;;;;;5093202;28;20024;-73
2022/03/11 02:51:40;;;;;;;11.52;7.50;;;12.30;50.90;;;;;;5092864;28;20149;-66
2022/03/11 02:54:06;;;;;;;12.30;8.35;;;12.30;51.00;;;;;;5093131;28;20085;-66
2022/03/11 02:56:32;;;;;;;10.82;9.05;;;12.30;51.40;;;;;;5093130;28;20028;-65
2022/03/11 02:58:57;;;;;;;13.90;8.40;;;12.30;50.70;;;;;;5092945;28;20105;-69
2022/03/11 03:01:23;;;;;;;10.75;7.28;;;12.30;50.70;;;;;;5093076;28;20028;-70
2022/03/11 03:03:49;;;;;;;9.18;7.38;;;12.30;51.30;;;;;;5093247;28;20038;-65
2022/03/11 03:06:14;;;;;;;10.55;7.22;;;12.30;50.60;;;;;;5093115;28;20043;-61
2022/03/11 03:08:40;;;;;;;9.90;7.70;;;12.30;51.90;;;;;;5097257;28;20028;-61
2022/03/11 03:11:05;;;;;;;10.60;7.45;;;12.30;51.00;;;;;;5097031;28;20028;-73
2022/03/11 03:13:31;;;;;;;10.77;7.47;;;12.20;50.80;;;;;;5097204;28;20434;-62
2022/03/11 03:15:57;;;;;;;9.45;7.88;;;12.20;52.00;;;;;;5097048;28;20078;-65
2022/03/11 03:18:23;;;;;;;9.05;7.38;;;12.20;51.10;;;;;;5097226;28;20477;-60
2022/03/11 03:20:49;;;;;;;11.30;8.10;;;12.30;51.00;;;;;;5096609;28;20073;-67
2022/03/11 03:23:14;;;;;;;10.68;7.90;;;12.20;51.50;;;;;;5097081;28;20020;-74
2022/03/11 03:25:41;;;;;;;8.18;7.07;;;12.20;51.50;;;;;;5097027;28;20035;-61
2022/03/11 03:28:07;;;;;;;8.77;7.57;;;12.30;51.70;;;;;;5096844;28;20099;-67
2022/03/11 03:30:33;;;;;;;9.07;7.85;;;12.20;51.00;;;;;;5096889;28;20051;-60
2022/03/11 03:32:58;;;;;;;10.73;7.57;;;12.20;51.10;;;;;;5096750;28;20020;-61
2022/03/11 03:35:24;;;;;;;12.35;8.15;;;12.20;50.80;;;;;;5096046;28;20040;-60
2022/03/11 03:37:49;;;;;;;10.45;7.60;;;12.20;51.00;;;;;;5096912;28;20030;-62
2022/03/11 03:40:15;;;;;;;10.98;7.50;;;12.10;51.10;;;;;;5096788;28;20020;-61
2022/03/11 03:42:45;;;;;;;10.68;7.93;;;12.10;51.40;;;;;;5096612;28;20111;-61
2022/03/11 03:45:11;;;;;;;12.48;8.30;;;12.10;50.60;;;;;;5096788;28;20099;-62
2022/03/11 03:47:36;;;;;;;13.18;7.95;;;12.10;51.10;;;;;;5096448;28;20103;-60
2022/03/11 03:50:02;;;;;;;9.73;7.47;;;12.00;51.00;;;;;;5096233;28;20028;-60
2022/03/11 03:52:28;;;;;;;9.25;7.97;;;12.00;51.00;;;;;;5096577;28;20035;-60
2022/03/11 03:54:54;;;;;;;9.70;7.80;;;12.00;51.20;;;;;;5096329;28;20047;-61
2022/03/11 03:57:20;;;;;;;10.20;8.15;;;11.90;51.00;;;;;;5096294;28;20385;-63
2022/03/11 03:59:45;;;;;;;8.88;7.72;;;11.90;51.80;;;;;;5096449;28;20085;-63
2022/03/11 04:02:11;;;;;;;10.38;8.05;;;12.00;51.50;;;;;;5096189;28;20469;-60
2022/03/11 04:04:36;;;;;;;9.55;7.78;;;12.00;51.50;;;;;;5096218;28;20027;-62
2022/03/11 04:07:02;;;;;;;10.15;7.57;;;11.90;51.20;;;;;;5095793;28;20520;-70
2022/03/11 04:09:28;;;;;;;9.55;7.55;;;11.90;51.60;;;;;;5096277;28;20035;-62
2022/03/11 04:11:53;;;;;;;10.13;7.40;;;11.90;51.20;;;;;;5095946;28;20024;-60
2022/03/11 04:14:19;;;;;;;8.38;7.20;;;11.90;51.30;;;;;;5095917;28;20069;-73
2022/03/11 04:16:44;;;;;;;9.43;7.65;;;11.80;51.60;;;;;;5095823;28;20060;-73
2022/03/11 04:19:10;;;;;;;9.70;8.00;;;11.90;51.50;;;;;;5095557;28;20024;-72
2022/03/11 04:21:35;;;;;;;9.40;7.63;;;11.80;51.20;;;;;;5095911;28;20520;-74
2022/03/11 04:24:01;;;;;;;9.10;7.45;;;11.80;51.90;;;;;;5095907;28;20465;-70
2022/03/11 04:26:27;;;;;;;8.77;7.10;;;11.80;51.80;;;;;;5095690;28;20108;-72
2022/03/11 04:28:52;;;;;;;10.52;7.82;;;11.80;51.90;;;;;;5095863;28;20093;-71
2022/03/11 04:31:18;;;;;;;8.35;6.78;;;11.80;52.00;;;;;;5095746;28;20024;-63
2022/03/11 04:33:44;;;;;;;8.88;6.60;;;11.80;51.70;;;;;;5095323;28;20028;-66
2022/03/11 04:36:10;;;;;;;8.85;6.97;;;11.80;52.60;;;;;;5095587;28;20036;-66
2022/03/11 04:38:36;;;;;;;8.43;6.90;;;11.80;52.40;;;;;;5095529;28;20043;-70
2022/03/11 04:41:01;;;;;;;8.80;7.00;;;11.90;51.90;;;;;;5095426;28;20464;-73
2022/03/11 04:43:27;;;;;;;8.13;6.63;;;11.80;52.20;;;;;;5095433;28;20012;-73
2022/03/11 04:45:53;;;;;;;9.20;7.10;;;11.80;53.10;;;;;;5095505;28;20508;-74
2022/03/11 04:48:19;;;;;;;9.48;7.63;;;11.90;51.90;;;;;;5095075;28;20111;-73
2022/03/11 04:50:45;;;;;;;8.98;7.03;;;11.90;52.30;;;;;;5095377;28;20024;-71
2022/03/11 04:53:11;;;;;;;10.25;7.15;;;11.90;52.70;;;;;;5095271;28;20073;-72
2022/03/11 04:55:37;;;;;;;10.80;7.30;;;11.80;53.00;;;;;;5095299;28;20035;-74
2022/03/11 04:58:03;;;;;;;9.60;7.68;;;11.80;52.30;;;;;;5095159;28;20025;-73
2022/03/11 05:00:29;;;;;;;10.15;8.90;;;11.80;53.60;;;;;;5095278;28;20450;-60
2022/03/11 05:02:55;;;;;;;9.27;6.80;;;11.80;54.50;;;;;;5094710;28;20044;-68
2022/03/11 05:05:21;;;;;;;9.68;7.03;;;11.80;53.90;;;;;;5095084;28;20074;-65
2022/03/11 05:07:47;;;;;;;11.00;7.88;;;11.80;54.00;;;;;;5094816;28;20020;-73
2022/03/11 05:10:14;;;;;;;10.63;7.70;;;11.80;53.70;;;;;;5095038;28;20385;-70
2022/03/11 05:12:40;;;;;;;10.50;8.05;;;11.70;53.40;;;;;;5095187;28;20024;-65
2022/03/11 05:15:07;;;;;;;10.70;7.22;;;11.70;53.50;;;;;;5094636;28;20484;-60
2022/03/11 05:17:33;;;;;;;8.70;7.07;;;11.70;54.00;;;;;;5076494;28;20062;-60
2022/03/11 05:19:58;;;;;;;10.88;7.43;;;11.70;53.90;;;;;;5094841;28;20048;-67
2022/03/11 05:22:24;;;;;;;10.65;8.00;;;11.70;53.60;;;;;;5094722;28;20534;-63
2022/03/11 05:24:50;;;;;;;9.90;7.13;;;11.60;53.80;;;;;;5094588;28;20047;-61
2022/03/11 05:27:16;;;;;;;11.98;8.10;;;11.60;53.60;;;;;;5094659;28;20028;-62
2022/03/11 05:29:42;;;;;;;12.27;7.30;;;11.70;53.80;;;;;;5093590;28;20055;-62
2022/03/11 05:32:09;;;;;;;9.02;6.88;;;11.70;53.90;;;;;;5094742;28;20340;-63
2022/03/11 05:34:39;;;;;;;8.35;7.05;;;11.60;54.40;;;;;;5094133;28;20024;-72
2022/03/11 05:37:06;;;;;;;9.15;7.43;;;11.70;55.00;;;;;;5094358;28;20036;-71
2022/03/11 05:39:32;;;;;;;8.25;6.63;;;11.70;54.50;;;;;;5094265;28;20091;-73
2022/03/11 05:41:58;;;;;;;9.15;7.55;;;11.70;54.80;;;;;;5094354;28;20047;-60
2022/03/11 05:44:24;;;;;;;7.78;5.60;;;11.60;54.40;;;;;;5093970;28;20530;-67
2022/03/11 05:46:50;;;;;;;11.10;7.47;;;11.70;55.20;;;;;;5094118;28;20028;-69
2022/03/11 05:49:15;;;;;;;7.65;5.72;;;11.70;55.00;;;;;;5094250;28;20058;-72
2022/03/11 05:51:41;;;;;;;9.10;7.10;;;11.70;55.30;;;;;;5094114;28;20448;-63
2022/03/11 05:54:07;;;;;;;10.85;7.13;;;11.70;55.40;;;;;;5094270;28;20091;-72
2022/03/11 05:56:34;;;;;;;11.13;8.20;;;11.70;55.10;;;;;;5093956;28;20504;-63
2022/03/11 05:59:00;;;;;;;11.55;8.23;;;11.70;54.80;;;;;;5093700;28;20020;-63
2022/03/11 06:01:25;;;;;;;11.52;7.07;;;11.70;54.80;;;;;;5085181;28;20029;-71
2022/03/11 06:03:51;;;;;;;10.20;7.35;;;11.60;55.10;;;;;;5073521;28;20032;-73
2022/03/11 06:06:17;;;;;;;14.05;7.90;;;11.70;55.10;;;;;;5070981;28;20029;-64
2022/03/11 06:08:43;;;;;;;10.98;7.60;;;11.70;55.10;;;;;;5072891;28;20029;-60
2022/03/11 06:11:11;;;;;;;11.05;7.55;;;11.60;55.10;;;;;;5073608;28;20028;-60
2022/03/11 06:13:37;;;;;;;10.77;6.65;;;11.60;55.50;;;;;;5073036;28;20101;-73
2022/03/11 06:16:04;;;;;;;13.15;7.88;;;11.60;55.60;;;;;;5081023;28;20071;-60
2022/03/11 06:18:29;;;;;;;12.45;7.82;;;11.60;54.80;;;;;;5089888;28;20031;-74
2022/03/11 06:20:56;;;;;;;8.95;5.40;;;11.60;55.10;;;;;;5087429;28;20408;-74
2022/03/11 06:23:22;;;;;;;9.75;7.90;;;11.60;56.00;;;;;;5073425;28;20027;-76
2022/03/11 06:25:48;;;;;;;10.68;7.22;;;11.60;55.70;;;;;;5074916;28;20025;-75
2022/03/11 06:28:14;;;;;;;11.65;8.38;;;11.60;55.70;;;;;;5082046;28;20027;-75
2022/03/11 06:30:39;;;;;;;11.48;7.65;;;11.50;55.40;;;;;;5082434;28;20420;-72
2022/03/11 06:33:06;;;;;;;11.48;8.07;;;11.60;55.00;;;;;;5080562;28;20066;-73
2022/03/11 06:35:32;;;;;;;13.30;6.68;;;11.60;54.20;;;;;;5063540;28;20036;-68
2022/03/11 06:37:58;;;;;;;8.93;6.63;;;11.60;55.90;;;;;;5072421;28;20032;-61
2022/03/11 06:40:23;;;;;;;13.63;6.47;;;11.70;56.70;;;;;;5087188;28;20111;-61
2022/03/11 06:42:50;;;;;;;8.50;6.30;;;11.70;56.20;;;;;;5078987;28;20052;-72
2022/03/11 06:45:17;;;;;;;10.35;7.93;;;11.80;56.80;;;;;;5084731;28;20016;-68
2022/03/11 06:47:44;;;;;;;11.98;8.07;;;11.70;54.80;;;;;;5084605;28;20154;-65
2022/03/11 06:50:10;;;;;;;11.57;8.25;;;11.70;54.20;;;;;;5084980;28;20388;-62
2022/03/11 06:52:36;;;;;;;11.88;8.40;;;11.70;54.20;;;;;;5070283;28;20037;-62
2022/03/11 06:55:03;;;;;;;14.43;8.07;;;11.60;55.00;;;;;;5078371;28;20112;-61
2022/03/11 06:57:30;;;;;;;14.90;8.75;;;11.60;54.70;;;;;;5079658;28;20035;-67
2022/03/11 06:59:55;;;;;;;11.20;7.38;;;11.60;55.00;;;;;;5081449;28;20077;-61
2022/03/11 07:02:21;;;;;;;12.07;8.05;;;11.60;55.60;;;;;;5085683;28;20036;-64
2022/03/11 07:04:46;;;;;;;11.02;7.70;;;11.70;55.20;;;;;;5086281;28;20031;-65
2022/03/11 07:07:12;;;;;;;13.65;8.43;;;11.60;55.10;;;;;;5089462;28;20056;-63
2022/03/11 07:09:38;;;;;;;11.30;7.00;;;11.70;55.00;;;;;;5085175;28;20059;-62
2022/03/11 07:12:04;;;;;;;13.80;7.82;;;11.70;54.80;;;;;;5087899;28;20017;-71
2022/03/11 07:14:35;;;;;;;14.52;8.23;;;11.70;54.70;;;;;;5088785;28;20066;-69
2022/03/11 07:17:06;;;;;;;11.57;8.07;;;11.80;54.70;;;;;;5091504;28;20055;-70
2022/03/11 07:19:33;;;;;;;12.90;8.07;;;11.80;54.50;;;;;;5089940;28;20012;-71
2022/03/11 07:22:02;;;;;;;17.77;6.22;;;11.80;54.70;;;;;;5086250;28;20024;-69
2022/03/11 07:24:28;;;;;;;11.88;7.40;;;11.90;58.90;;;;;;5071696;28;20017;-68
2022/03/11 07:26:54;;;;;;;13.27;8.35;;;11.90;57.10;;;;;;5085126;28;20079;-72
2022/03/11 07:29:20;;;;;;;14.32;7.70;;;12.00;55.50;;;;;;5079646;28;20073;-74
2022/03/11 07:31:45;;;;;;;12.02;7.38;;;12.00;55.30;;;;;;5090677;28;20106;-70
2022/03/11 07:34:11;;;;;;;12.93;7.22;;;12.10;55.60;;;;;;5092108;28;20116;-64
2022/03/11 07:36:37;;;;;;;8.65;6.63;;;12.10;55.90;;;;;;5090616;28;20041;-69
2022/03/11 07:39:07;;;;;;;8.25;6.18;;;12.20;55.90;;;;;;5092166;28;20465;-65
2022/03/11 07:41:34;;;;;;;9.32;6.68;;;12.20;56.40;;;;;;5087628;28;20056;-62
2022/03/11 07:44:01;;;;;;;9.20;6.47;;;12.30;56.20;;;;;;5087167;28;20028;-73
2022/03/11 07:46:28;;;;;;;11.55;6.95;;;12.30;56.80;;;;;;5073971;28;20428;-73
2022/03/11 07:48:57;;;;;;;11.27;7.18;;;12.40;56.60;;;;;;5072196;28;20029;-69
2022/03/11 07:51:24;;;;;;;9.88;6.85;;;12.50;56.70;;;;;;5085414;28;20081;-73
2022/03/11 07:53:50;;;;;;;9.02;7.13;;;12.50;56.70;;;;;;5093826;28;20032;-70
2022/03/11 07:56:16;;;;;;;12.93;7.03;;;12.50;56.10;;;;;;5079649;28;20115;-69
2022/03/11 07:58:42;;;;;;;10.38;6.88;;;12.50;56.20;;;;;;5085342;28;20028;-72
2022/03/11 08:01:09;;;;;;;8.18;6.40;;;12.60;55.60;;;;;;5094739;28;20438;-67
2022/03/11 08:03:36;;;;;;;11.15;6.97;;;12.60;56.30;;;;;;5095968;28;20043;-72
2022/03/11 08:06:08;;;;;;;9.98;7.10;;;12.70;56.20;;;;;;5095656;28;20024;-71
2022/03/11 08:08:37;;;;;;;9.13;6.72;;;12.70;55.80;;;;;;5091760;28;20024;-72
2022/03/11 08:11:04;;;;;;;11.52;7.18;;;12.70;56.40;;;;;;5093586;28;20024;-72
2022/03/11 08:13:29;;;;;;;9.57;7.05;;;12.80;57.40;;;;;;5094605;28;20438;-73
2022/03/11 08:15:55;;;;;;;9.18;6.30;;;12.80;56.70;;;;;;5095770;28;20568;-71
2022/03/11 08:18:21;;;;;;;9.15;6.93;;;12.90;57.00;;;;;;5095345;28;20032;-70
2022/03/11 08:20:47;;;;;;;8.57;5.78;;;12.90;58.10;;;;;;5094187;28;20488;-66
2022/03/11 08:23:13;;;;;;;9.40;7.00;;;13.00;58.30;;;;;;5084667;28;20024;-73
2022/03/11 08:25:39;;;;;;;8.23;6.25;;;13.00;56.80;;;;;;5092284;28;20024;-70
2022/03/11 08:28:07;;;;;;;10.80;6.85;;;13.00;57.20;;;;;;5094022;28;20031;-69
2022/03/11 08:30:34;;;;;;;12.43;7.13;;;13.00;57.10;;;;;;5095046;28;20031;-64
2022/03/11 08:32:59;;;;;;;9.88;6.25;;;13.00;57.30;;;;;;5095282;28;20464;-65
2022/03/11 08:35:25;;;;;;;12.10;7.32;;;13.10;57.90;;;;;;5093530;28;20028;-64
2022/03/11 08:37:51;;;;;;;9.02;5.75;;;13.10;57.00;;;;;;5094894;28;20028;-61
2022/03/11 08:40:22;;;;;;;10.68;6.57;;;13.10;57.70;;;;;;5094256;28;20077;-63
2022/03/11 08:42:48;;;;;;;11.10;7.30;;;13.20;57.90;;;;;;5095458;28;20039;-66
2022/03/11 08:45:14;;;;;;;10.05;6.88;;;13.20;57.00;;;;;;5095572;28;20020;-62
2022/03/11 08:47:40;;;;;;;11.75;7.68;;;13.20;57.10;;;;;;5094939;28;20032;-72
2022/03/11 08:50:06;;;;;;;13.88;7.10;;;13.20;57.20;;;;;;5095494;28;20020;-62
2022/03/11 08:52:32;;;;;;;9.65;7.05;;;13.30;57.20;;;;;;5087484;28;20067;-60
2022/03/11 08:54:58;;;;;;;8.88;6.72;;;13.30;57.00;;;;;;5082149;28;20036;-61
2022/03/11 08:57:24;;;;;;;11.18;6.72;;;13.30;58.00;;;;;;5092456;28;20028;-61
2022/03/11 08:59:50;;;;;;;9.75;7.40;;;13.30;57.70;;;;;;5094064;28;20032;-61
2022/03/11 09:02:16;;;;;;;16.33;7.43;;;13.30;57.40;;;;;;5093351;28;20036;-62
2022/03/11 09:04:42;;;;;;;9.48;7.10;;;13.40;58.00;;;;;;5092454;28;20073;-61
2022/03/11 09:07:08;;;;;;;9.18;5.97;;;13.40;58.10;;;;;;5092643;28;20435;-62
2022/03/11 09:09:36;;;;;;;10.75;5.55;;;13.40;58.50;;;;;;5093819;28;20035;-62
2022/03/11 09:12:03;;;;;;;7.28;5.30;;;13.50;58.80;;;;;;5086246;28;20051;-62
2022/03/11 09:14:30;;;;;;;7.70;6.47;;;13.50;58.90;;;;;;5093420;28;20031;-60
2022/03/11 09:16:56;;;;;;;10.23;7.18;;;13.50;58.60;;;;;;5092455;28;20656;-59
2022/03/11 09:19:21;;;;;;;10.68;7.50;;;13.60;58.30;;;;;;5092385;28;20024;-61
2022/03/11 09:21:47;;;;;;;13.98;6.97;;;13.50;58.10;;;;;;5093567;28;20024;-59
2022/03/11 09:24:13;;;;;;;9.88;6.60;;;13.60;58.30;;;;;;5085371;28;20031;-59
2022/03/11 09:26:39;;;;;;;7.68;5.63;;;13.50;58.60;;;;;;5092490;28;20043;-58
2022/03/11 09:29:04;;;;;;;11.10;7.32;;;13.60;59.00;;;;;;5090520;28;20020;-59
2022/03/11 09:31:30;;;;;;;10.82;7.70;;;13.70;58.40;;;;;;5072522;28;20086;-58
2022/03/11 09:33:56;;;;;;;12.25;7.97;;;13.70;58.40;;;;;;5073015;28;20016;-59
2022/03/11 09:36:21;;;;;;;16.05;7.97;;;13.70;58.30;;;;;;5089515;28;20043;-59
2022/03/11 09:38:47;;;;;;;14.23;7.32;;;13.70;58.30;;;;;;5092892;28;20035;-61
2022/03/11 09:41:13;;;;;;;12.27;7.15;;;13.70;58.70;;;;;;5092997;28;20542;-67
2022/03/11 09:43:39;;;;;;;9.00;6.28;;;13.70;58.80;;;;;;5092026;28;20439;-60
2022/03/11 09:46:06;;;;;;;13.65;7.35;;;13.70;59.00;;;;;;5092637;28;20022;-71
2022/03/11 09:48:34;;;;;;;10.50;7.15;;;13.80;59.10;;;;;;5086394;28;20040;-72
2022/03/11 09:50:59;;;;;;;11.98;7.95;;;13.80;59.00;;;;;;5093558;28;20050;-71
2022/03/11 09:53:27;;;;;;;10.75;6.05;;;13.80;59.00;;;;;;5093820;28;20448;-71
2022/03/11 09:55:53;;;;;;;11.07;7.53;;;13.80;59.20;;;;;;5093972;28;20036;-76
2022/03/11 09:58:19;;;;;;;9.60;7.03;;;13.80;59.20;;;;;;5075455;28;20392;-75
2022/03/11 10:00:49;;;;;;;11.23;7.65;;;13.90;59.20;;;;;;5093553;28;20520;-75
2022/03/11 10:03:15;;;;;;;10.82;8.10;;;13.80;59.30;;;;;;5094139;28;20020;-75
2022/03/11 10:05:46;;;;;;;11.27;7.72;;;13.80;59.20;;;;;;5093743;28;20023;-76
2022/03/11 10:08:12;;;;;;;10.57;7.50;;;13.90;59.50;;;;;;5093386;28;20119;-76
2022/03/11 10:10:37;;;;;;;12.30;8.10;;;13.90;59.20;;;;;;5093398;28;20397;-76
2022/03/11 10:13:04;;;;;;;11.57;6.40;;;13.90;60.00;;;;;;5095767;28;20035;-74
2022/03/11 10:15:29;;;;;;;8.68;6.53;;;13.90;59.70;;;;;;5093085;28;20160;-71
2022/03/11 10:17:56;;;;;;;12.52;8.52;;;13.90;59.70;;;;;;5093669;28;20062;-71
2022/03/11 10:20:22;;;;;;;10.45;8.50;;;14.00;59.70;;;;;;5093371;28;20073;-74
2022/03/11 10:22:48;;;;;;;12.82;7.28;;;13.90;59.50;;;;;;5093564;28;20031;-69
2022/03/11 10:25:16;;;;;;;8.55;6.75;;;13.90;59.70;;;;;;5093492;28;20093;-74
2022/03/11 10:27:59;;;;;;;9.80;6.90;;;13.90;60.00;;;;;;5092890;28;20377;-76
2022/03/11 10:30:26;;;;;;;15.98;8.70;;;14.00;60.00;;;;;;5093143;28;20030;-75
2022/03/11 10:32:56;;;;;;;7.93;6.25;;;14.00;57.90;;;;;;5093483;28;20023;-75
2022/03/11 10:35:37;;;;;;;12.13;7.70;;;14.10;59.00;;;;;;5093058;28;20032;-74
2022/03/11 10:38:07;;;;;;;11.98;7.57;;;14.10;58.60;;;;;;5093520;28;20507;-76
2022/03/11 10:40:34;;;;;;;10.82;8.00;;;14.20;58.60;;;;;;5092955;28;20117;-76
2022/03/11 10:43:18;;;;;;;14.02;8.00;;;14.10;58.80;;;;;;5091032;28;20024;-62
2022/03/11 10:45:56;;;;;;;11.23;6.93;;;14.20;59.40;;;;;;5091527;28;20054;-75
2022/03/11 10:48:46;;;;;;;9.88;7.45;;;14.20;59.80;;;;;;5088850;28;20024;-76
2022/03/11 10:51:20;;;;;;;8.82;7.40;;;14.20;60.00;;;;;;5091840;28;20024;-72
2022/03/11 10:53:51;;;;;;;14.75;7.90;;;14.20;60.70;;;;;;5092483;28;20024;-75
2022/03/11 10:56:29;;;;;;;9.57;7.35;;;14.20;61.00;;;;;;5092299;28;20028;-75
2022/03/11 10:58:55;;;;;;;12.63;6.60;;;14.20;61.50;;;;;;5091875;28;20016;-74
2022/03/11 11:01:39;;;;;;;5.90;4.80;;;14.20;61.60;;;;;;5092595;28;20034;-76
2022/03/11 11:04:07;;;;;;;7.50;5.68;;;14.30;61.50;;;;;;5092374;28;20031;-76
2022/03/11 11:06:34;;;;;;;13.40;6.97;;;14.30;62.00;;;;;;5079272;28;20028;-74
2022/03/11 11:09:00;;;;;;;7.10;6.40;;;14.30;62.00;;;;;;5092647;28;20158;-66
2022/03/11 11:11:26;;;;;;;9.73;6.18;;;14.30;62.50;;;;;;5091867;28;20088;-76
2022/03/11 11:13:52;;;;;;;8.48;5.97;;;14.30;62.40;;;;;;5092545;28;20062;-76
2022/03/11 11:16:23;;;;;;;10.02;5.10;;;14.30;62.80;;;;;;5092607;28;20036;-76
2022/03/11 11:18:51;;;;;;;7.18;5.90;;;14.40;62.80;;;;;;5092420;28;20044;-75
2022/03/11 11:21:24;;;;;;;12.68;5.88;;;14.40;62.70;;;;;;5074179;28;20020;-76
2022/03/11 11:23:54;;;;;;;8.57;5.85;;;14.40;62.70;;;;;;5081171;28;20021;-76
2022/03/11 11:26:22;;;;;;;9.35;6.22;;;14.40;62.90;;;;;;5079899;28;20370;-77
2022/03/11 11:28:48;;;;;;;9.82;6.47;;;14.50;63.00;;;;;;5095538;28;20020;-76
2022/03/11 11:31:17;;;;;;;8.95;6.07;;;14.50;63.10;;;;;;5078568;28;20020;-71
2022/03/11 11:33:44;;;;;;;10.20;6.60;;;14.50;63.30;;;;;;5096748;28;20028;-76
2022/03/11 11:36:10;;;;;;;8.88;5.60;;;14.50;63.60;;;;;;5096393;28;20036;-75
2022/03/11 11:38:42;;;;;;;7.00;5.00;;;14.50;63.50;;;;;;5096270;28;20503;-76
2022/03/11 11:41:27;;;;;;;10.52;5.20;;;14.60;63.60;;;;;;5095929;28;20552;-76
2022/03/11 11:44:03;;;;;;;7.13;4.47;;;14.60;63.60;;;;;;5094195;28;20024;-75
2022/03/11 11:46:30;;;;;;;6.22;5.15;;;14.60;63.60;;;;;;5096380;28;20043;-71
2022/03/11 11:48:57;;;;;;;10.63;6.15;;;14.60;63.60;;;;;;5096249;28;20055;-76
2022/03/11 11:51:43;;;;;;;5.93;4.93;;;14.70;63.70;;;;;;5095860;28;20043;-72
2022/03/11 11:54:10;;;;;;;6.50;5.65;;;14.70;63.60;;;;;;5099701;28;20018;-76
2022/03/11 11:56:58;;;;;;;7.90;4.70;;;14.70;63.90;;;;;;5096358;28;20028;-75
2022/03/11 11:59:26;;;;;;;6.70;5.38;;;14.70;64.10;;;;;;5096357;28;20016;-75
2022/03/11 12:01:56;;;;;;;4.80;3.95;;;14.70;64.20;;;;;;5097368;28;20481;-73
2022/03/11 12:04:40;;;;;;;6.05;4.60;;;14.70;64.30;;;;;;5098136;28;20396;-73
2022/03/11 12:07:10;;;;;;;6.07;4.93;;;14.80;64.30;;;;;;5081351;28;20033;-76
2022/03/11 12:09:38;;;;;;;5.57;3.38;;;14.80;64.50;;;;;;5090643;28;20035;-71
2022/03/11 12:12:07;;;;;;;7.22;4.50;;;14.80;64.60;;;;;;5060535;28;20028;-68
2022/03/11 12:14:58;;;;;;;7.13;5.00;;;14.90;64.80;;;;;;5078925;28;20058;-73
2022/03/11 12:17:39;;;;;;;6.53;3.60;;;14.90;64.80;;;;;;5095223;28;20696;-69
2022/03/11 12:20:23;;;;;;;5.63;4.60;;;14.90;65.00;;;;;;5089683;28;20408;-73
2022/03/11 12:23:09;;;;;;;3.70;2.30;;;15.00;65.30;;;;;;5095122;28;20031;-71
2022/03/11 12:25:48;;;;;;;6.55;3.45;;;15.10;64.90;;;;;;5095389;28;20117;-77
2022/03/11 12:28:27;;;;;;;3.92;2.65;;;15.20;64.90;;;;;;5095404;28;20054;-70
2022/03/11 12:31:03;;;;;;;5.10;3.45;;;15.30;64.90;;;;;;5095542;28;20028;-77
2022/03/11 12:33:36;;;;;;;4.38;3.38;;;15.30;64.80;;;;;;5095397;28;20028;-76
2022/03/11 12:36:06;;;;;;;6.35;2.72;;;15.40;64.70;;;;;;5095490;28;20067;-77
2022/03/11 12:38:32;;;;;;;8.02;4.50;;;15.50;65.00;;;;;;5076738;28;20024;-74
2022/03/11 12:41:25;;;;;;;6.35;3.65;;;15.50;64.70;;;;;;5094902;28;20060;-72